Time;durP1;ratioP1;P1;durP2;ratioP2;P2;SDS_P1;SDS_P2;PMS_P1;PMS_P2;Temp;Humidity;BMP_temperature;BMP_pressure;BME280_temperature;BME280_humidity;BME280_pressure;Samples;Min_cycle;Max_cycle;Signal;HPM_P1;HPM_P2
2022/08/12 00:43:12;;;;;;;6.00;2.20;;;;;;;12.99;92.41;100809.73;104791;1275;60464;-63
2022/08/12 00:49:06;;;;;;;6.60;2.20;;;;;;;12.90;92.29;100809.48;104692;1277;68696;-64
2022/08/12 00:52:08;;;;;;;8.50;2.50;;;;;;;12.88;92.35;100808.04;104469;1277;73416;-62
2022/08/12 00:55:01;;;;;;;6.00;1.90;;;;;;;12.86;92.84;100814.36;104752;1274;60433;-61
2022/08/12 00:57:50;;;;;;;6.70;2.10;;;;;;;12.86;93.36;100812.80;104940;1274;60485;-62
2022/08/12 01:00:41;;;;;;;7.50;2.60;;;;;;;12.85;93.46;100814.27;104940;1274;74432;-61
2022/08/12 01:13:01;;;;;;;6.40;2.30;;;;;;;12.86;95.04;100810.98;104939;1274;60494;-63
2022/08/12 01:16:08;;;;;;;6.40;2.30;;;;;;;12.88;95.83;100810.17;104747;1274;75115;-62
2022/08/12 01:18:57;;;;;;;12.30;5.60;;;;;;;12.90;96.30;100808.78;104715;1277;67191;-61
2022/08/12 01:22:10;;;;;;;13.20;5.20;;;;;;;12.91;96.63;100809.70;104552;1275;74256;-62
2022/08/12 01:25:11;;;;;;;11.40;5.10;;;;;;;12.94;97.08;100807.40;104813;1274;60485;-62
2022/08/12 01:28:01;;;;;;;9.80;4.20;;;;;;;12.93;96.45;100809.20;104671;1276;61032;-65
2022/08/12 01:30:49;;;;;;;9.00;4.00;;;;;;;12.92;96.32;100807.52;104761;1274;74474;-63
2022/08/12 01:34:05;;;;;;;9.60;4.20;;;;;;;12.90;95.88;100807.70;104900;1274;68235;-65
2022/08/12 01:37:15;;;;;;;8.40;3.50;;;;;;;12.85;95.34;100808.06;104692;1275;72849;-62
2022/08/12 01:40:07;;;;;;;8.10;3.10;;;;;;;12.81;95.66;100806.73;104570;1275;60501;-63
2022/08/12 01:43:20;;;;;;;7.50;2.60;;;;;;;12.79;95.95;100811.86;104823;1276;61040;-62
2022/08/12 01:46:21;;;;;;;8.20;3.00;;;;;;;12.78;96.50;100809.45;104728;1275;74555;-62
2022/08/12 01:49:53;;;;;;;9.40;3.60;;;;;;;12.77;96.64;100809.89;104707;1274;69654;-62
2022/08/12 01:52:54;;;;;;;11.40;3.40;;;;;;;12.77;97.19;100808.66;104796;1274;72210;-62
2022/08/12 01:55:45;;;;;;;8.80;3.50;;;;;;;12.75;97.11;100805.97;104711;1277;61048;-62
2022/08/12 02:01:52;;;;;;;8.60;3.20;;;;;;;12.76;96.38;100804.80;104781;1275;73663;-63
2022/08/12 02:11:29;;;;;;;9.20;2.80;;;;;;;12.75;96.10;100807.36;104641;1277;60482;-62
2022/08/12 02:14:50;;;;;;;8.70;2.80;;;;;;;12.74;96.27;100807.07;104645;1276;60382;-63
2022/08/12 02:17:47;;;;;;;8.60;2.90;;;;;;;12.76;96.65;100805.20;104930;1275;74816;-63
2022/08/12 02:21:28;;;;;;;6.40;2.60;;;;;;;12.78;97.43;100807.52;104883;1274;67397;-61
2022/08/12 02:24:20;;;;;;;7.20;2.70;;;;;;;12.79;97.42;100810.84;104673;1276;73521;-62
2022/08/12 02:27:14;;;;;;;10.00;2.50;;;;;;;12.80;97.27;100809.90;104758;1275;60906;-63
2022/08/12 02:30:08;;;;;;;7.30;2.30;;;;;;;12.80;97.28;100811.66;104764;1274;60576;-66
2022/08/12 02:32:59;;;;;;;7.50;2.60;;;;;;;12.81;97.31;100812.85;104730;1275;73923;-61
2022/08/12 02:35:50;;;;;;;6.70;2.30;;;;;;;12.81;97.61;100812.48;104878;1274;67096;-60
2022/08/12 02:38:41;;;;;;;6.40;2.30;;;;;;;12.80;97.34;100810.76;105004;1277;72239;-63
2022/08/12 02:41:33;;;;;;;6.50;2.60;;;;;;;12.80;97.73;100813.77;104690;1277;61426;-60
2022/08/12 02:44:24;;;;;;;8.30;3.20;;;;;;;12.80;97.90;100816.83;104736;1277;61997;-61
2022/08/12 02:47:15;;;;;;;8.00;3.00;;;;;;;12.80;98.65;100816.61;104727;1275;75416;-61
2022/08/12 02:50:27;;;;;;;10.30;3.10;;;;;;;12.82;99.74;100822.50;104854;1277;69590;-62
2022/08/12 02:53:17;;;;;;;8.20;3.10;;;;;;;12.86;100.00;100822.61;104469;1277;73386;-62
2022/08/12 02:56:05;;;;;;;7.70;2.70;;;;;;;12.89;100.00;100820.38;104770;1275;60494;-63
2022/08/12 02:58:56;;;;;;;11.00;3.10;;;;;;;12.91;100.00;100818.48;104566;1276;60622;-62
2022/08/12 03:01:49;;;;;;;8.80;3.10;;;;;;;12.93;100.00;100817.63;104610;1276;74866;-61
2022/08/12 03:04:55;;;;;;;8.20;2.90;;;;;;;12.94;99.94;100815.39;104615;1277;68158;-64
2022/08/12 03:07:52;;;;;;;7.00;2.50;;;;;;;12.97;99.60;100814.85;104805;1274;72735;-63
2022/08/12 03:10:49;;;;;;;6.50;2.30;;;;;;;12.97;98.94;100815.21;104838;1274;61260;-64
2022/08/12 03:13:44;;;;;;;7.50;2.90;;;;;;;12.97;98.35;100820.55;104820;1276;60722;-63
2022/08/12 03:16:32;;;;;;;7.20;2.70;;;;;;;12.98;98.24;100815.27;104976;1276;75637;-61
2022/08/12 03:19:24;;;;;;;7.80;2.90;;;;;;;13.02;98.60;100814.81;104927;1274;68025;-62
2022/08/12 03:22:13;;;;;;;8.80;2.60;;;;;;;13.07;98.38;100817.63;104826;1277;73891;-64
2022/08/12 03:25:04;;;;;;;9.50;3.00;;;;;;;13.11;97.84;100821.75;104718;1274;61330;-63
2022/08/12 03:27:56;;;;;;;7.50;2.90;;;;;;;13.15;97.46;100823.63;104810;1276;61969;-63
2022/08/12 03:30:50;;;;;;;7.20;2.70;;;;;;;13.19;97.16;100817.41;104776;1277;74789;-62
2022/08/12 03:33:46;;;;;;;9.20;3.00;;;;;;;13.23;96.74;100818.00;104471;1276;68271;-63
2022/08/12 03:36:53;;;;;;;10.30;2.80;;;;;;;13.25;96.04;100814.45;104626;1276;73252;-62
2022/08/12 03:39:44;;;;;;;7.50;2.50;;;;;;;13.26;95.67;100814.37;104763;1277;60468;-63
2022/08/12 03:42:50;;;;;;;9.00;2.70;;;;;;;13.26;95.21;100813.86;104970;1277;62044;-63
2022/08/12 04:01:21;;;;;;;6.80;2.90;;;;;;;13.31;96.00;100807.61;104737;1277;73619;-63
2022/08/12 04:04:09;;;;;;;7.60;2.60;;;;;;;13.34;96.43;100809.16;104945;1274;68557;-62
2022/08/12 04:07:06;;;;;;;7.50;3.10;;;;;;;13.37;96.46;100813.90;104633;1277;73943;-60
2022/08/12 04:09:56;;;;;;;7.30;3.10;;;;;;;13.41;96.67;100810.41;104644;1277;61559;-60
2022/08/12 04:13:18;;;;;;;7.70;3.00;;;;;;;13.47;96.83;100815.14;104955;1274;60673;-61
2022/08/12 04:16:09;;;;;;;10.40;3.10;;;;;;;13.56;96.57;100815.13;104977;1274;73659;-63
2022/08/12 04:18:57;;;;;;;8.70;3.00;;;;;;;13.62;96.55;100813.56;104877;1275;68132;-64
2022/08/12 04:21:47;;;;;;;8.60;2.90;;;;;;;13.70;95.89;100812.11;104879;1274;73536;-62
2022/08/12 04:24:52;;;;;;;8.00;3.00;;;;;;;13.75;95.49;100810.04;104774;1277;60716;-62
2022/08/12 04:27:44;;;;;;;6.90;2.80;;;;;;;13.82;94.97;100810.63;104788;1274;61007;-62
2022/08/12 04:30:34;;;;;;;8.80;3.10;;;;;;;13.90;95.21;100811.23;104765;1275;74838;-64
2022/08/12 04:33:24;;;;;;;7.10;2.90;;;;;;;13.98;95.27;100814.30;104878;1274;69960;-64
2022/08/12 04:36:12;;;;;;;7.70;2.90;;;;;;;14.06;95.13;100813.70;104907;1274;70775;-61
2022/08/12 04:39:03;;;;;;;7.80;2.60;;;;;;;14.13;95.11;100817.19;104865;1274;60476;-61
2022/08/12 04:41:51;;;;;;;7.60;2.80;;;;;;;14.23;94.83;100816.77;104446;1279;60470;-61
2022/08/12 04:44:45;;;;;;;8.50;2.50;;;;;;;14.35;94.50;100816.39;104610;1277;74567;-64
2022/08/12 04:47:34;;;;;;;8.60;2.80;;;;;;;14.45;94.32;100813.88;104714;1275;68678;-63
2022/08/12 04:50:24;;;;;;;9.10;3.20;;;;;;;14.57;93.57;100810.66;104599;1277;74492;-63
2022/08/12 04:53:24;;;;;;;8.50;2.90;;;;;;;14.69;93.07;100812.38;104658;1274;60562;-62
2022/08/12 04:56:13;;;;;;;9.80;2.80;;;;;;;14.80;92.72;100815.51;104689;1274;60473;-64
2022/08/12 04:59:03;;;;;;;8.10;3.40;;;;;;;14.92;91.97;100812.25;104679;1274;75595;-63
2022/08/12 05:01:52;;;;;;;9.50;3.30;;;;;;;15.04;91.52;100812.14;104657;1275;69216;-64
2022/08/12 05:04:43;;;;;;;9.50;3.00;;;;;;;15.16;90.96;100812.66;104592;1274;72184;-61
2022/08/12 05:07:32;;;;;;;10.50;3.60;;;;;;;15.32;90.70;100812.04;104706;1274;61213;-62
2022/08/12 05:10:22;;;;;;;10.60;4.00;;;;;;;15.50;90.08;100808.40;104705;1274;60495;-64
2022/08/12 05:13:26;;;;;;;10.30;3.50;;;;;;;15.70;89.27;100809.50;104862;1274;75638;-63
2022/08/12 05:16:14;;;;;;;11.90;3.60;;;;;;;15.92;88.54;100806.70;104616;1275;68459;-63
2022/08/12 05:19:12;;;;;;;10.00;3.00;;;;;;;16.18;87.58;100810.81;104841;1275;73987;-63
2022/08/12 05:22:09;;;;;;;10.40;3.50;;;;;;;16.42;86.26;100800.99;104658;1275;60460;-64
2022/08/12 05:24:57;;;;;;;9.50;3.00;;;;;;;16.80;85.10;100811.17;104662;1274;60954;-62
2022/08/12 05:27:46;;;;;;;9.10;3.00;;;;;;;17.31;82.01;100806.44;103817;1274;1462412;-60
2022/08/12 05:30:46;;;;;;;8.20;2.20;;;;;;;18.13;79.69;100803.29;104850;1274;69582;-62
2022/08/12 05:33:36;;;;;;;13.20;2.30;;;;;;;19.22;75.53;100805.05;104632;1274;73241;-63
2022/08/12 05:36:24;;;;;;;7.80;1.80;;;;;;;20.51;70.56;100806.27;104642;1274;60472;-62
2022/08/12 05:39:12;;;;;;;9.40;2.30;;;;;;;21.77;66.11;100801.33;104605;1275;60329;-62
2022/08/12 05:42:00;;;;;;;12.20;2.00;;;;;;;22.92;60.42;100800.98;104633;1275;74607;-65
2022/08/12 05:44:48;;;;;;;16.90;2.20;;;;;;;23.92;56.24;100797.73;104636;1274;68131;-61
2022/08/12 05:47:36;;;;;;;11.70;2.50;;;;;;;24.87;52.15;100798.42;104609;1274;71609;-63
2022/08/12 05:50:42;;;;;;;16.70;2.40;;;;;;;25.78;49.39;100794.55;104677;1274;60470;-64
2022/08/12 05:53:30;;;;;;;10.30;2.70;;;;;;;26.63;46.56;100789.95;104688;1274;61601;-62
2022/08/12 05:56:34;;;;;;;14.10;1.80;;;;;;;27.35;43.38;100784.34;104666;1274;73998;-62
2022/08/12 05:59:22;;;;;;;8.90;1.70;;;;;;;27.99;41.90;100782.69;104625;1274;69654;-66
2022/08/12 06:02:11;;;;;;;8.60;1.60;;;;;;;28.68;39.98;100785.02;104642;1274;74215;-63
2022/08/12 06:05:01;;;;;;;10.20;2.00;;;;;;;29.27;38.85;100785.04;104593;1274;60495;-63
2022/08/12 06:07:53;;;;;;;8.50;1.60;;;;;;;29.77;37.12;100783.33;104869;1274;62263;-67
2022/08/12 06:10:49;;;;;;;9.70;3.40;;;;;;;30.12;35.52;100781.77;104731;1275;74607;-67
2022/08/12 06:13:38;;;;;;;8.40;2.10;;;;;;;30.25;33.61;100784.75;104731;1277;67192;-67
2022/08/12 06:16:42;;;;;;;9.20;2.10;;;;;;;30.42;32.26;100782.08;104386;1278;72602;-67
2022/08/12 06:19:31;;;;;;;7.30;1.20;;;;;;;30.65;32.18;100782.08;104592;1278;60504;-78
2022/08/12 06:22:43;;;;;;;6.20;1.20;;;;;;;31.44;30.31;100780.58;104780;1277;60357;-77
2022/08/12 06:25:33;;;;;;;8.10;1.60;;;;;;;32.44;29.04;100779.81;105115;1277;73168;-77
2022/08/12 06:28:21;;;;;;;5.90;1.10;;;;;;;33.23;27.61;100778.27;105614;1274;66678;-76
2022/08/12 06:31:17;;;;;;;6.70;1.00;;;;;;;33.84;26.47;100777.72;105625;1274;73490;-78
2022/08/12 06:34:14;;;;;;;5.60;1.00;;;;;;;34.65;25.70;100767.15;105003;1278;60466;-77
2022/08/12 06:37:23;;;;;;;7.90;1.20;;;;;;;35.37;24.60;100765.85;105174;1274;59365;-78
2022/08/12 06:40:13;;;;;;;7.50;1.10;;;;;;;35.83;23.58;100764.64;104765;1274;73669;-78
2022/08/12 06:43:01;;;;;;;6.40;1.20;;;;;;;36.42;22.77;100759.98;104775;1274;68516;-74
2022/08/12 06:45:49;;;;;;;7.10;1.00;;;;;;;36.77;21.72;100756.47;104870;1277;73573;-77
2022/08/12 06:48:37;;;;;;;5.60;0.90;;;;;;;36.95;21.37;100755.48;104615;1278;60485;-81
2022/08/12 06:51:29;;;;;;;7.00;1.00;;;;;;;37.34;21.18;100761.68;104709;1278;62130;-80
2022/08/12 06:54:18;;;;;;;6.10;0.90;;;;;;;37.73;21.01;100757.89;105217;1276;72501;-79
2022/08/12 06:57:18;;;;;;;6.10;0.90;;;;;;;38.25;19.74;100754.39;104798;1277;68934;-75
2022/08/12 07:00:29;;;;;;;7.50;1.00;;;;;;;38.28;19.53;100757.27;104713;1277;74453;-78
2022/08/12 07:03:26;;;;;;;6.10;1.20;;;;;;;38.43;19.48;100759.27;104766;1278;60558;-76
2022/08/12 07:06:14;;;;;;;5.80;1.00;;;;;;;38.73;19.60;100755.58;105170;1276;60491;-79
2022/08/12 07:09:03;;;;;;;7.10;1.10;;;;;;;39.20;19.00;100752.63;104845;1276;74119;-82
2022/08/12 07:11:52;;;;;;;8.80;0.90;;;;;;;39.39;18.64;100750.68;104782;1277;68064;-76
2022/08/12 07:14:39;;;;;;;5.50;0.90;;;;;;;39.55;18.54;100751.70;104788;1276;71699;-78
2022/08/12 07:17:35;;;;;;;8.30;1.30;;;;;;;39.65;18.37;100752.27;104835;1277;60442;-80
2022/08/12 07:20:29;;;;;;;6.20;1.10;;;;;;;39.76;18.41;100752.63;104577;1277;62147;-76
2022/08/12 07:23:40;;;;;;;5.30;0.90;;;;;;;39.95;17.97;100752.14;104939;1278;73351;-79
2022/08/12 07:26:28;;;;;;;6.30;1.00;;;;;;;40.06;17.88;100753.38;104899;1276;69495;-77
2022/08/12 07:29:16;;;;;;;6.20;1.20;;;;;;;39.95;17.07;100752.09;104466;1277;74905;-77
2022/08/12 07:32:04;;;;;;;6.60;0.80;;;;;;;39.91;16.75;100748.02;104761;1277;60918;-67
2022/08/12 07:34:53;;;;;;;5.70;0.80;;;;;;;40.01;16.84;100748.94;104882;1277;60570;-77
2022/08/12 07:37:43;;;;;;;5.30;0.90;;;;;;;40.10;16.64;100746.10;105103;1278;74333;-77
2022/08/12 07:40:34;;;;;;;6.30;0.90;;;;;;;40.44;16.17;100745.06;105074;1277;68163;-76
2022/08/12 07:43:26;;;;;;;7.20;1.00;;;;;;;40.52;15.70;100744.77;105201;1277;72862;-75
2022/08/12 07:46:21;;;;;;;7.50;1.10;;;;;;;40.59;15.92;100748.50;105367;1277;60521;-78
2022/08/12 07:49:14;;;;;;;4.90;0.80;;;;;;;40.88;15.87;100738.80;105406;1277;60956;-77
2022/08/12 07:52:04;;;;;;;5.40;1.00;;;;;;;40.97;15.77;100741.21;105762;1277;72740;-76
2022/08/12 07:54:53;;;;;;;7.30;1.00;;;;;;;40.91;15.90;100744.83;105264;1277;67056;-76
2022/08/12 07:57:58;;;;;;;6.50;0.70;;;;;;;40.99;16.04;100739.10;104910;1277;71770;-76
2022/08/12 08:00:48;;;;;;;5.20;0.80;;;;;;;40.97;16.01;100738.58;105869;1277;60369;-76
2022/08/12 08:04:54;;;;;;;5.50;0.90;;;;;;;40.89;16.17;100734.88;105206;1277;60580;-79
2022/08/12 08:06:49;;;;;;;6.70;0.90;;;;;;;41.19;15.70;100737.05;105443;1276;74293;-78
2022/08/12 08:09:38;;;;;;;5.20;1.00;;;;;;;41.44;15.83;100731.13;105264;1277;68189;-78
2022/08/12 08:15:34;;;;;;;5.80;1.00;;;;;;;41.52;14.90;100731.36;105386;1277;60896;-79
2022/08/12 08:18:42;;;;;;;4.90;0.70;;;;;;;41.58;14.82;100738.70;105661;1276;60556;-76
2022/08/12 08:21:34;;;;;;;6.70;1.00;;;;;;;41.48;15.01;100733.95;105082;1276;72917;-75
2022/08/12 08:24:25;;;;;;;6.70;0.90;;;;;;;41.70;15.15;100741.24;105142;1276;66305;-76
2022/08/12 08:27:14;;;;;;;11.10;1.30;;;;;;;41.77;15.37;100740.47;105043;1276;73402;-77
2022/08/12 08:30:02;;;;;;;7.80;1.30;;;;;;;41.90;15.82;100741.92;105107;1276;59333;-77
2022/08/12 08:32:50;;;;;;;7.10;1.00;;;;;;;41.92;15.88;100741.70;105085;1277;60865;-77
2022/08/12 08:35:44;;;;;;;7.40;1.00;;;;;;;41.57;15.45;100741.64;105227;1274;74698;-77
2022/08/12 08:38:34;;;;;;;6.20;1.30;;;;;;;41.43;16.08;100736.73;105195;1274;67964;-77
2022/08/12 08:44:49;;;;;;;7.70;1.00;;;;;;;41.89;15.63;100730.98;104957;1274;60494;-76
2022/08/12 08:47:47;;;;;;;5.20;0.90;;;;;;;41.73;15.78;100730.50;104846;1274;62525;-76
2022/08/12 08:50:35;;;;;;;6.70;1.60;;;;;;;41.83;15.69;100730.35;105245;1274;75160;-76
2022/08/12 08:53:23;;;;;;;6.40;1.10;;;;;;;41.81;15.35;100725.59;104872;1275;67220;-75
2022/08/12 08:56:11;;;;;;;5.30;0.90;;;;;;;41.83;15.46;100726.96;104826;1274;70951;-75
2022/08/12 08:59:00;;;;;;;5.90;1.00;;;;;;;41.98;15.32;100727.55;104579;1274;60628;-76
2022/08/12 09:01:52;;;;;;;7.50;1.00;;;;;;;42.14;15.07;100729.13;105112;1275;60551;-77
2022/08/12 09:04:41;;;;;;;7.10;1.20;;;;;;;42.13;14.85;100723.66;104842;1274;74552;-75
2022/08/12 09:07:50;;;;;;;6.90;0.90;;;;;;;41.99;14.32;100722.73;104968;1274;66450;-78
2022/08/12 09:13:26;;;;;;;7.80;1.20;;;;;;;41.90;14.70;100724.57;104958;1274;72893;-74
2022/08/12 09:14:28;;;;;;;7.50;2.00;;;;;;;41.81;14.56;100722.58;105038;1274;60445;-79
2022/08/12 09:17:17;;;;;;;7.30;1.80;;;;;;;41.88;14.42;100722.33;104998;1274;60515;-78
2022/08/12 09:20:14;;;;;;;8.20;1.00;;;;;;;41.74;14.21;100724.17;105029;1276;74051;-76
2022/08/12 09:23:04;;;;;;;3.90;0.80;;;;;;;41.65;14.32;100724.52;105408;1274;68067;-77
2022/08/12 09:26:14;;;;;;;5.90;2.00;;;;;;;41.58;14.13;100722.95;105273;1274;74553;-77
2022/08/12 09:29:04;;;;;;;7.00;2.60;;;;;;;41.53;13.81;100721.49;105296;1274;60399;-78
2022/08/12 09:32:00;;;;;;;6.90;1.10;;;;;;;41.68;14.03;100719.50;105087;1274;60501;-76
2022/08/12 09:34:54;;;;;;;5.90;1.00;;;;;;;41.61;13.73;100721.15;105323;1274;72744;-75
2022/08/12 09:37:47;;;;;;;7.90;1.20;;;;;;;41.50;14.12;100720.35;104722;1276;68305;-76
2022/08/12 09:40:56;;;;;;;7.70;1.50;;;;;;;41.62;14.35;100718.34;104807;1276;72360;-76
2022/08/12 09:47:28;;;;;;;7.50;1.50;;;;;;;41.47;14.70;100716.77;104962;1276;61773;-76
2022/08/12 09:50:23;;;;;;;5.60;0.80;;;;;;;41.32;14.30;100720.27;104816;1276;74192;-74
2022/08/12 09:53:23;;;;;;;6.00;1.20;;;;;;;41.14;14.41;100718.34;104684;1276;69595;-76
2022/08/12 09:56:30;;;;;;;5.00;0.90;;;;;;;40.92;13.92;100714.34;104964;1276;73547;-75
2022/08/12 09:59:44;;;;;;;7.10;0.90;;;;;;;40.65;13.63;100716.54;104990;1276;60487;-77
2022/08/12 10:03:10;;;;;;;6.30;0.90;;;;;;;40.23;13.66;100709.93;105730;1276;60370;-78
2022/08/12 10:06:19;;;;;;;9.40;1.00;;;;;;;40.05;14.49;100711.84;105279;1277;74246;-77
2022/08/12 10:09:24;;;;;;;4.80;0.80;;;;;;;40.14;14.38;100716.52;105429;1276;67799;-76
2022/08/12 10:16:06;;;;;;;6.20;1.00;;;;;;;40.30;15.22;100718.69;105639;1276;60781;-77
2022/08/12 10:19:11;;;;;;;6.60;1.20;;;;;;;40.28;15.70;100717.61;105338;1276;60512;-75
2022/08/12 10:22:08;;;;;;;8.10;1.20;;;;;;;40.31;16.41;100716.67;105304;1276;74090;-76
2022/08/12 10:32:22;;;;;;;6.40;1.10;;;;;;;40.30;16.45;100702.70;104981;1277;60484;-76
2022/08/12 10:35:34;;;;;;;5.60;1.20;;;;;;;40.01;16.13;100698.16;105268;1276;60453;-74
2022/08/12 10:38:31;;;;;;;6.00;1.20;;;;;;;39.78;16.15;100695.57;104888;1276;72603;-74
2022/08/12 10:44:50;;;;;;;6.80;1.20;;;;;;;40.15;16.66;100691.36;104763;1276;74783;-74
2022/08/12 10:47:38;;;;;;;5.80;1.10;;;;;;;40.20;16.60;100694.28;104861;1274;60545;-76
2022/08/12 10:50:48;;;;;;;4.50;0.90;;;;;;;39.85;16.73;100688.71;104743;1274;60544;-75
2022/08/12 10:53:55;;;;;;;5.30;0.90;;;;;;;39.49;16.30;100687.03;104849;1277;74114;-76
2022/08/12 10:56:50;;;;;;;4.60;0.90;;;;;;;39.68;16.57;100681.34;105000;1274;69109;-75
2022/08/12 10:59:38;;;;;;;6.60;0.90;;;;;;;39.76;16.39;100680.95;105038;1277;73292;-73
2022/08/12 11:02:55;;;;;;;6.80;1.30;;;;;;;39.70;16.54;100679.98;104963;1276;60698;-74
2022/08/12 11:06:08;;;;;;;4.10;0.80;;;;;;;39.69;16.26;100678.34;105107;1276;62070;-77
2022/08/12 11:09:36;;;;;;;6.60;1.20;;;;;;;39.74;16.07;100673.74;105189;1277;74436;-75
2022/08/12 11:12:46;;;;;;;6.30;1.80;;;;;;;39.71;15.97;100668.70;104918;1275;68632;-74
2022/08/12 11:15:47;;;;;;;5.90;1.20;;;;;;;39.83;16.13;100673.42;104592;1274;73607;-75
2022/08/12 11:18:56;;;;;;;4.70;1.10;;;;;;;39.82;16.11;100670.40;104919;1274;60515;-73
2022/08/12 11:21:53;;;;;;;5.30;1.10;;;;;;;39.53;15.98;100669.77;105040;1275;63118;-74
2022/08/12 11:24:47;;;;;;;5.20;0.90;;;;;;;39.13;16.09;100665.17;104870;1274;75195;-77
2022/08/12 11:27:43;;;;;;;5.80;1.00;;;;;;;38.76;16.87;100662.83;104816;1274;68622;-75
2022/08/12 11:30:47;;;;;;;7.00;0.90;;;;;;;38.27;17.54;100666.90;105075;1274;74383;-76
2022/08/12 11:33:42;;;;;;;5.20;0.80;;;;;;;37.88;17.91;100667.13;105263;1274;60470;-75
2022/08/12 11:37:03;;;;;;;6.10;1.00;;;;;;;37.49;17.89;100664.79;105289;1274;60461;-75
2022/08/12 11:40:15;;;;;;;4.60;0.90;;;;;;;37.03;18.37;100664.67;104756;1274;74584;-75
2022/08/12 11:43:11;;;;;;;5.30;1.00;;;;;;;36.62;19.06;100656.88;104974;1274;68571;-74
2022/08/12 11:46:05;;;;;;;5.00;0.80;;;;;;;36.01;19.08;100653.27;104822;1274;72269;-75
2022/08/12 11:49:03;;;;;;;5.10;0.80;;;;;;;35.46;19.19;100651.14;104628;1274;60470;-74
2022/08/12 11:51:51;;;;;;;4.50;1.00;;;;;;;35.00;19.87;100648.11;104419;1276;60408;-77
2022/08/12 11:54:47;;;;;;;5.30;1.00;;;;;;;34.52;20.67;100649.77;104954;1274;72926;-76
2022/08/12 11:57:57;;;;;;;5.80;1.10;;;;;;;34.23;21.13;100646.33;104819;1274;67350;-74
2022/08/12 12:01:05;;;;;;;6.00;1.30;;;;;;;33.61;21.01;100650.46;104524;1274;72066;-74
2022/08/12 12:04:16;;;;;;;4.80;1.00;;;;;;;33.10;21.71;100656.55;104776;1275;60374;-76
2022/08/12 12:07:17;;;;;;;7.10;1.00;;;;;;;32.46;22.73;100659.71;104929;1274;60382;-76
2022/08/12 12:10:06;;;;;;;6.50;1.00;;;;;;;31.88;23.34;100655.84;105007;1274;75224;-75
2022/08/12 12:12:57;;;;;;;4.80;0.90;;;;;;;31.39;24.00;100646.91;105006;1274;67122;-76
2022/08/12 12:15:46;;;;;;;6.20;1.00;;;;;;;31.05;25.12;100659.77;105339;1274;72981;-74
2022/08/12 12:18:35;;;;;;;6.80;1.00;;;;;;;30.63;26.09;100655.28;104771;1274;60467;-75
2022/08/12 12:21:23;;;;;;;5.00;1.30;;;;;;;30.38;26.25;100656.73;104723;1274;61935;-74
2022/08/12 12:24:31;;;;;;;7.10;1.60;;;;;;;30.14;26.70;100655.73;104693;1274;75551;-75
2022/08/12 12:27:20;;;;;;;7.00;1.10;;;;;;;30.00;27.27;100654.96;104713;1274;66603;-75
2022/08/12 12:30:29;;;;;;;6.20;1.20;;;;;;;29.80;27.36;100648.39;104914;1274;73588;-75
2022/08/12 12:33:19;;;;;;;5.50;1.20;;;;;;;29.73;27.58;100652.54;105204;1274;60572;-74
2022/08/12 12:36:08;;;;;;;7.00;1.30;;;;;;;29.52;27.54;100652.36;104763;1276;60537;-75
2022/08/12 12:39:09;;;;;;;6.40;1.30;;;;;;;29.38;28.08;100655.41;105162;1276;75348;-76
2022/08/12 12:41:57;;;;;;;6.20;1.00;;;;;;;29.23;28.36;100653.83;104560;1276;67424;-77
2022/08/12 12:45:07;;;;;;;5.50;1.10;;;;;;;29.07;29.24;100653.59;104743;1276;74225;-74
2022/08/12 12:48:09;;;;;;;7.00;1.20;;;;;;;28.92;29.55;100652.33;104765;1276;61182;-73
2022/08/12 12:51:16;;;;;;;5.60;1.10;;;;;;;28.88;29.76;100654.80;105329;1277;62021;-76
2022/08/12 12:54:24;;;;;;;6.00;1.00;;;;;;;28.81;29.23;100656.09;104760;1276;74471;-74
2022/08/12 12:57:15;;;;;;;6.90;1.40;;;;;;;28.73;29.11;100653.43;104980;1276;69087;-75
2022/08/12 13:00:16;;;;;;;5.20;1.10;;;;;;;28.69;29.06;100651.61;105022;1276;72285;-75
2022/08/12 13:03:04;;;;;;;5.10;1.40;;;;;;;28.63;29.38;100652.30;104674;1276;60985;-75
2022/08/12 13:06:10;;;;;;;10.10;4.80;;;;;;;28.55;29.39;100649.95;104570;1274;60348;-75
2022/08/12 13:09:02;;;;;;;6.60;1.70;;;;;;;28.51;29.88;100648.35;104735;1276;74838;-74
2022/08/12 13:11:50;;;;;;;6.10;1.90;;;;;;;28.47;29.74;100646.02;104731;1276;68084;-73
2022/08/12 13:14:40;;;;;;;7.80;2.70;;;;;;;28.46;30.30;100645.81;104723;1276;72993;-75
2022/08/12 13:17:37;;;;;;;6.70;1.20;;;;;;;28.43;29.95;100647.44;104796;1276;60306;-76
2022/08/12 13:20:48;;;;;;;6.00;1.50;;;;;;;28.32;29.92;100646.64;104747;1276;61836;-75
2022/08/12 13:23:49;;;;;;;5.70;1.80;;;;;;;28.23;29.73;100648.95;104917;1276;75894;-75
2022/08/12 13:26:38;;;;;;;6.30;1.60;;;;;;;28.13;30.42;100645.44;104902;1276;69650;-77
2022/08/12 13:29:32;;;;;;;6.90;1.80;;;;;;;27.94;31.22;100648.90;105065;1276;71654;-75
2022/08/12 13:32:21;;;;;;;5.80;1.70;;;;;;;27.84;31.77;100646.27;104859;1274;60587;-76
2022/08/12 13:35:19;;;;;;;5.10;1.20;;;;;;;27.80;31.68;100640.24;104990;1274;60415;-77
2022/08/12 13:38:39;;;;;;;8.20;1.60;;;;;;;27.71;31.83;100631.97;105123;1274;73860;-77
2022/08/12 13:41:34;;;;;;;6.30;1.40;;;;;;;27.69;32.08;100637.83;104537;1274;67122;-76
2022/08/12 13:44:29;;;;;;;6.30;1.40;;;;;;;27.68;32.24;100630.13;105171;1274;71300;-77
2022/08/12 13:47:23;;;;;;;5.00;1.10;;;;;;;27.65;32.41;100629.27;104739;1274;60490;-75
2022/08/12 13:50:15;;;;;;;7.50;1.40;;;;;;;27.62;32.30;100624.73;104907;1274;60355;-75
2022/08/12 13:53:12;;;;;;;5.20;1.40;;;;;;;27.52;31.74;100615.08;105148;1274;74037;-76
2022/08/12 13:56:16;;;;;;;4.80;1.10;;;;;;;27.50;32.11;100613.70;105105;1274;66861;-75
2022/08/12 13:59:07;;;;;;;5.50;1.30;;;;;;;27.54;32.37;100621.92;104701;1274;72914;-77
2022/08/12 14:01:58;;;;;;;6.30;1.30;;;;;;;27.52;32.22;100613.95;105138;1274;60466;-75
2022/08/12 14:04:51;;;;;;;7.30;2.30;;;;;;;27.47;32.33;100610.82;105051;1274;61026;-76
2022/08/12 14:07:57;;;;;;;8.90;2.00;;;;;;;27.43;32.50;100610.33;105080;1274;75120;-76
2022/08/12 14:10:52;;;;;;;6.60;2.00;;;;;;;27.38;33.00;100611.08;104941;1274;69658;-76
2022/08/12 14:13:42;;;;;;;6.80;1.60;;;;;;;27.36;32.87;100611.71;104936;1274;71385;-76
2022/08/12 14:16:57;;;;;;;7.10;2.10;;;;;;;27.31;32.34;100606.65;104912;1274;60354;-75
2022/08/12 14:22:58;;;;;;;6.60;1.70;;;;;;;27.23;33.05;100607.78;104919;1275;74731;-77
2022/08/12 14:26:20;;;;;;;7.10;1.30;;;;;;;27.22;32.97;100606.86;105080;1274;68533;-75
2022/08/12 14:29:08;;;;;;;5.50;1.30;;;;;;;27.22;32.92;100605.86;104524;1275;73414;-74
2022/08/12 14:32:17;;;;;;;6.20;1.20;;;;;;;27.18;32.59;100610.91;105359;1274;60480;-75
2022/08/12 14:35:06;;;;;;;5.70;1.30;;;;;;;27.14;32.90;100607.11;104700;1276;60601;-75
2022/08/12 14:37:56;;;;;;;6.00;1.20;;;;;;;27.11;33.00;100608.08;104646;1276;72714;-73
2022/08/12 14:40:58;;;;;;;7.70;1.20;;;;;;;27.12;33.06;100608.95;104652;1276;68621;-74
2022/08/12 14:43:50;;;;;;;6.90;1.40;;;;;;;27.15;32.90;100610.20;104887;1276;71673;-75
2022/08/12 14:46:58;;;;;;;5.90;1.20;;;;;;;27.14;32.84;100612.07;104647;1276;60486;-73
2022/08/12 14:49:46;;;;;;;5.00;1.20;;;;;;;27.12;32.71;100608.66;104671;1276;60436;-75
2022/08/12 14:52:54;;;;;;;4.50;1.00;;;;;;;27.16;32.85;100605.29;104812;1275;75624;-77
2022/08/12 14:56:03;;;;;;;6.40;1.20;;;;;;;27.20;32.97;100605.11;104499;1275;69632;-73
2022/08/12 15:02:39;;;;;;;6.10;1.20;;;;;;;27.06;33.23;100596.38;104900;1276;60443;-75
2022/08/12 15:05:33;;;;;;;6.70;1.20;;;;;;;27.00;33.17;100595.39;104596;1275;61015;-73
2022/08/12 15:08:44;;;;;;;4.80;1.30;;;;;;;26.88;32.39;100592.27;104618;1276;74847;-73
2022/08/12 15:11:35;;;;;;;6.40;1.20;;;;;;;26.78;32.69;100593.23;104640;1276;69095;-73
2022/08/12 15:14:42;;;;;;;6.70;1.10;;;;;;;26.67;33.06;100594.36;104579;1274;74253;-73
2022/08/12 15:17:36;;;;;;;7.00;1.50;;;;;;;26.64;33.27;100585.75;104704;1276;60546;-76
2022/08/12 15:20:26;;;;;;;5.40;1.50;;;;;;;26.63;33.47;100588.42;104701;1276;60437;-77
2022/08/12 15:23:29;;;;;;;4.90;1.20;;;;;;;26.64;33.63;100589.98;105005;1276;74053;-74